Latest  Newer  Older  Last 2 hours slideshow  Last 24 hours slideshow  Refresh every 5 minutes 
Current image  Latest image  Rain/snow radar  Cloud coverage sat images 

All time is UTC (add 2 hours to UTC in wintertime, 3 hours to UTC in DST for Latvia local time)

2018/09/21 17:20 EVRA 211720Z 17013KT CAVOK 24/12 Q1006 NOSIG
2018/09/21 17:20 EVLA 211720Z AUTO 16011KT 100V190 9999 NCD 24/13 Q1002
2018/09/21 17:20 EVVA 211720Z AUTO 16009KT CAVOK 24/14 Q1001
2018/09/21 17:20 EYKA 211720Z 15007KT CAVOK 21/11 Q1009
2018/09/21 17:20 EYPA 211720Z 17018KT CAVOK 24/14 Q1003
2018/09/21 17:20 EYSA 211720Z 16012KT CAVOK 22/11 Q1008 BLU NOSIG
2018/09/21 17:20 EYVI 211720Z 15009KT CAVOK 20/12 Q1012 NOSIG
2018/09/21 14:50 EEKA 211450Z 16012KT CAVOK 22/14 Q1003
2018/09/21 16:50 EEKE 211650Z AUTO 17013KT 9999NDV NSC 19/14 Q1002
2018/09/21 12:50 EEPU 211250Z 17008KT 130V240 CAVOK 25/15 Q1007
2018/09/21 17:20 EETN 211720Z 16011KT CAVOK 21/15 Q1003 NOSIG
2018/09/21 16:50 EETU 211650Z AUTO 15007KT 9999 NCD 21/14 Q1008
   RIGA AIRPORT     EVRA               56 55N  023 58E   10   X     T          6 LV
   LIEPAJA INTL     EVLA        26406  56 31N  021 06E    4   X                8 LV
   VENTPILS         EVVA               57 21N  021 33E    6   X                8 LV
   KAUNAS           EYKA               54 54N  023 55E   77   X     T          6 LT
   PALANGA INTL     EYPA               55 55N  021 03E   10   X                6 LT
   SIAULIAI INTL    EYSA               55 54N  023 24E  135   X     T          6 LT
   VILNIUS INTL     EYVI        26730  54 38N  025 17E  197   X     T          6 LT
   KARDLA           EEKA        26116  58 59N  022 50E    4   X                8 EE
   KURESSAARE       EEKE               58 14N  022 31E    4   X                8 EE
   PARNU            EEPU               58 25N  024 28E   14   X                8 EE
   TALLINN          EETN        26038  59 24N  024 49E   40   X     T          8 EE
   TARTU            EETU               58 19N  026 41E   67   X                8 EE